createdAt,value
2019-01-03T00:00:38.228Z,57.8
2019-01-03T00:05:35.051Z,57.8
2019-01-03T00:10:31.179Z,57.8
2019-01-03T00:15:27.265Z,57.9
2019-01-03T00:20:23.615Z,58
2019-01-03T00:25:19.539Z,58
2019-01-03T00:30:16.055Z,58.1
2019-01-03T00:35:12.507Z,58.4
2019-01-03T00:40:08.652Z,58.2
2019-01-03T00:45:04.872Z,58.4
2019-01-03T00:50:01.386Z,58.1
2019-01-03T00:54:57.487Z,58.4
2019-01-03T00:59:53.752Z,58.3
2019-01-03T01:04:50.276Z,58.5
2019-01-03T01:09:46.346Z,58.4
2019-01-03T01:14:42.766Z,58.7
2019-01-03T01:19:38.407Z,58.5
2019-01-03T01:24:35.062Z,58.5
2019-01-03T01:29:31.386Z,58.6
2019-01-03T01:34:27.394Z,58.9
2019-01-03T01:39:23.708Z,59.2
2019-01-03T01:44:19.953Z,59.3
2019-01-03T01:49:16.159Z,59.5
2019-01-03T01:54:12.476Z,59.6
2019-01-03T01:59:08.855Z,59.4
2019-01-03T02:04:05.580Z,59.2
2019-01-03T02:09:01.762Z,59.1
2019-01-03T02:13:58.032Z,59
2019-01-03T02:18:54.391Z,58.9
2019-01-03T02:23:51.053Z,58.9
2019-01-03T02:28:47.570Z,58.8
2019-01-03T02:33:43.655Z,58.7
2019-01-03T02:38:39.710Z,58.6
2019-01-03T02:43:36.168Z,58.6
2019-01-03T02:48:32.068Z,58.8
2019-01-03T02:53:28.588Z,58.8
2019-01-03T02:58:25.021Z,58.6
2019-01-03T03:03:22.666Z,58.5
2019-01-03T03:08:18.570Z,58.5
2019-01-03T03:13:14.673Z,58.6
2019-01-03T03:18:11.074Z,58.6
2019-01-03T03:23:07.371Z,58.7
2019-01-03T03:28:03.430Z,58.6
2019-01-03T03:32:59.717Z,58.6
2019-01-03T03:37:55.862Z,58.7
2019-01-03T03:42:52.547Z,58.7
2019-01-03T03:47:48.325Z,58.8
2019-01-03T03:52:44.682Z,58.8
2019-01-03T03:57:41.289Z,58.5
2019-01-03T04:02:37.778Z,58.8
2019-01-03T04:07:33.565Z,58.6
2019-01-03T04:12:30.275Z,58.5
2019-01-03T04:17:26.305Z,58.7
2019-01-03T04:22:22.596Z,58.6
2019-01-03T04:27:19.438Z,58.5
2019-01-03T04:32:15.724Z,58.4
2019-01-03T04:37:12.011Z,58.5
2019-01-03T04:42:08.443Z,58.4
2019-01-03T04:47:04.769Z,58.6
2019-01-03T04:52:01.044Z,58.7
2019-01-03T04:56:56.704Z,58.9
2019-01-03T05:01:53.673Z,59.1
2019-01-03T05:06:49.886Z,59.2
2019-01-03T05:11:46.287Z,59.3
2019-01-03T05:16:42.664Z,59.2
2019-01-03T05:21:39.011Z,59.9
2019-01-03T05:26:35.561Z,60
2019-01-03T05:31:31.906Z,60.7
2019-01-03T05:36:28.368Z,60.1
2019-01-03T05:41:24.800Z,60
2019-01-03T05:46:21.029Z,59.7
2019-01-03T05:51:17.511Z,59.5
2019-01-03T05:56:13.820Z,59.6
2019-01-03T06:01:10.427Z,59.9
2019-01-03T06:06:06.570Z,60.3
2019-01-03T06:11:02.893Z,59.5
2019-01-03T06:15:58.777Z,59.6
2019-01-03T06:20:55.107Z,59.7
2019-01-03T06:25:51.531Z,60
2019-01-03T06:30:48.535Z,59.6
2019-01-03T06:35:44.823Z,59.5
2019-01-03T06:40:41.170Z,58.8
2019-01-03T06:45:37.191Z,58.7
2019-01-03T06:50:33.765Z,59
2019-01-03T06:55:30.012Z,59.5
2019-01-03T07:00:27.282Z,58.9
2019-01-03T07:05:23.676Z,59.2
2019-01-03T07:10:19.733Z,58.9
2019-01-03T07:15:16.876Z,59.3
2019-01-03T07:20:12.830Z,59.7
2019-01-03T07:25:09.131Z,59.8
2019-01-03T07:30:05.615Z,60.2
2019-01-03T07:35:01.924Z,61.1
2019-01-03T07:39:58.221Z,60.7
2019-01-03T07:44:54.438Z,61.1
2019-01-03T07:49:50.430Z,61.4
2019-01-03T07:54:46.461Z,61.7
2019-01-03T07:59:43.583Z,61.4
2019-01-03T08:04:40.115Z,61.3
2019-01-03T08:09:36.256Z,61.9
2019-01-03T08:14:33.180Z,61.4
2019-01-03T08:19:29.289Z,61
2019-01-03T08:24:25.312Z,61
2019-01-03T08:29:21.247Z,61
2019-01-03T08:34:17.729Z,61.2
2019-01-03T08:39:14.056Z,61.2
2019-01-03T08:44:10.939Z,60.8
2019-01-03T08:49:07.639Z,61.1
2019-01-03T08:54:04.051Z,61.8
2019-01-03T08:59:00.609Z,60.8
2019-01-03T09:03:56.670Z,60.9
2019-01-03T09:08:53.015Z,60.6
2019-01-03T09:13:49.412Z,59
2019-01-03T09:18:45.628Z,58.9
2019-01-03T09:23:42.199Z,58.5
2019-01-03T09:28:38.481Z,58.2
2019-01-03T09:33:35.058Z,57.7
2019-01-03T09:38:31.617Z,57.5
2019-01-03T09:43:28.603Z,57.4
2019-01-03T09:48:24.928Z,56.9
2019-01-03T09:53:21.108Z,56.4
2019-01-03T09:58:17.250Z,56.6
2019-01-03T10:03:13.824Z,55.6
2019-01-03T10:08:10.167Z,55.6
2019-01-03T10:13:06.494Z,56.2
2019-01-03T10:18:03.227Z,56.1
2019-01-03T10:23:00.079Z,55.8
2019-01-03T10:27:56.064Z,55.4
2019-01-03T10:32:52.255Z,54.8
2019-01-03T10:37:48.743Z,55.2
2019-01-03T10:42:45.075Z,54.4
2019-01-03T10:47:41.311Z,53.7
2019-01-03T10:52:37.365Z,53.6
2019-01-03T10:57:33.956Z,53.7
2019-01-03T11:02:30.384Z,53.2
2019-01-03T11:07:26.704Z,53
2019-01-03T11:12:23.137Z,52.8
2019-01-03T11:17:20.737Z,52.9
2019-01-03T11:22:16.585Z,52.8
2019-01-03T11:27:13.021Z,52.6
2019-01-03T11:32:09.448Z,52.8
2019-01-03T11:37:05.918Z,52
2019-01-03T11:42:02.607Z,50.9
2019-01-03T11:46:59.417Z,50.4
2019-01-03T11:51:55.372Z,50.4
2019-01-03T11:56:51.798Z,50.2
2019-01-03T12:01:48.265Z,51.6
2019-01-03T12:06:44.412Z,51.6
2019-01-03T12:11:40.812Z,52.3
2019-01-03T12:16:37.101Z,51.3
2019-01-03T12:21:33.483Z,50.9
2019-01-03T12:26:29.877Z,51.6
2019-01-03T12:31:26.258Z,49.5
2019-01-03T12:36:22.551Z,50.9
2019-01-03T12:41:18.992Z,49.3
2019-01-03T12:46:15.298Z,48.1
2019-01-03T12:51:11.470Z,48
2019-01-03T12:56:07.932Z,47.3
2019-01-03T13:01:04.088Z,47.8
2019-01-03T13:06:00.371Z,48.3
2019-01-03T13:10:56.789Z,48.6
2019-01-03T13:15:52.867Z,48.9
2019-01-03T13:20:48.829Z,48.9
2019-01-03T13:25:45.306Z,49.1
2019-01-03T13:30:41.536Z,48.8
2019-01-03T13:35:37.977Z,49.2
2019-01-03T13:40:34.302Z,48.6
2019-01-03T13:45:30.410Z,48.7
2019-01-03T13:50:26.837Z,48.6
2019-01-03T13:55:23.300Z,48.1
2019-01-03T14:00:19.263Z,48.4
2019-01-03T14:05:15.517Z,48.8
2019-01-03T14:10:11.541Z,48.9
2019-01-03T14:15:07.661Z,48.9
2019-01-03T14:20:03.959Z,48.7
2019-01-03T14:25:00.438Z,48.9
2019-01-03T14:29:56.581Z,48.6
2019-01-03T14:34:52.830Z,49.1
2019-01-03T14:39:49.247Z,49
2019-01-03T14:44:46.263Z,49.1
2019-01-03T14:49:42.493Z,49
2019-01-03T14:54:39.102Z,48.7
2019-01-03T14:59:35.911Z,49
2019-01-03T15:04:32.412Z,49
2019-01-03T15:09:28.590Z,48.8
2019-01-03T15:14:24.820Z,48.9
2019-01-03T15:19:20.983Z,50.4
2019-01-03T15:24:17.308Z,51.7
2019-01-03T15:29:13.598Z,52.2
2019-01-03T15:34:09.849Z,52.4
2019-01-03T15:39:05.989Z,52.5
2019-01-03T15:44:01.965Z,52.4
2019-01-03T15:48:58.443Z,52.6
2019-01-03T15:53:54.331Z,52.9
2019-01-03T15:58:50.580Z,52.8
2019-01-03T16:03:47.254Z,52.5
2019-01-03T16:08:43.137Z,52.9
2019-01-03T16:13:39.544Z,53.2
2019-01-03T16:18:35.905Z,53
2019-01-03T16:23:32.028Z,53.2
2019-01-03T16:28:28.443Z,53.2
2019-01-03T16:33:24.722Z,53
2019-01-03T16:38:20.646Z,53
2019-01-03T16:43:16.850Z,53.2
2019-01-03T16:48:13.135Z,53
2019-01-03T16:53:09.913Z,52.9
2019-01-03T16:58:06.224Z,53.2
2019-01-03T17:03:02.777Z,53.3
2019-01-03T17:07:58.875Z,54.3
2019-01-03T17:12:55.164Z,54.4
2019-01-03T17:17:51.564Z,54
2019-01-03T17:22:47.728Z,54.2
2019-01-03T17:27:44.044Z,54.8
2019-01-03T17:32:40.499Z,55.7
2019-01-03T17:37:36.844Z,57
2019-01-03T17:42:33.446Z,57
2019-01-03T17:47:29.852Z,57.9
2019-01-03T17:52:26.169Z,57.8
2019-01-03T17:57:22.610Z,58.6
2019-01-03T18:02:19.127Z,59.1
2019-01-03T18:07:15.258Z,60.3
2019-01-03T18:12:11.566Z,59.5
2019-01-03T18:17:07.805Z,59.8
2019-01-03T18:22:04.256Z,59.5
2019-01-03T18:27:00.582Z,59.3
2019-01-03T18:31:56.755Z,58.6
2019-01-03T18:36:52.818Z,58.1
2019-01-03T18:41:49.095Z,58.3
2019-01-03T18:46:45.343Z,58.7
2019-01-03T18:51:41.529Z,58.6
2019-01-03T18:56:38.198Z,57.9
2019-01-03T19:01:35.358Z,57.4
2019-01-03T19:06:31.651Z,57.8
2019-01-03T19:11:27.967Z,57.6
2019-01-03T19:16:24.261Z,57.7
2019-01-03T19:21:20.860Z,58
2019-01-03T19:26:16.881Z,57.5
2019-01-03T19:31:13.110Z,57.5
2019-01-03T19:36:09.367Z,58.3
2019-01-03T19:41:05.683Z,57.4
2019-01-03T19:46:02.026Z,57.7
2019-01-03T19:50:58.394Z,57.5
2019-01-03T19:55:54.659Z,56.9
2019-01-03T20:00:50.807Z,56.5
2019-01-03T20:05:46.883Z,56.2
2019-01-03T20:10:43.821Z,56.6
2019-01-03T20:15:39.984Z,56.4
2019-01-03T20:20:36.908Z,56
2019-01-03T20:25:33.018Z,55.2
2019-01-03T20:30:29.375Z,55.4
2019-01-03T20:35:25.548Z,54.6
2019-01-03T20:40:21.926Z,54
2019-01-03T20:45:18.075Z,54
2019-01-03T20:50:14.508Z,55
2019-01-03T20:55:10.804Z,54.4
2019-01-03T21:00:07.559Z,54
2019-01-03T21:05:03.658Z,53.4
2019-01-03T21:10:02.098Z,53.3
2019-01-03T21:14:57.273Z,53.5
2019-01-03T21:19:53.518Z,53.7
2019-01-03T21:24:50.145Z,53.1
2019-01-03T21:29:46.649Z,53.5
2019-01-03T21:34:47.086Z,53.5
2019-01-03T21:39:42.491Z,53.8
2019-01-03T21:44:38.071Z,53.1
2019-01-03T21:49:38.239Z,52.8
2019-01-03T21:54:33.393Z,53.3
2019-01-03T21:59:29.990Z,53.4
2019-01-03T22:04:25.994Z,52.8
2019-01-03T22:09:22.487Z,53.6
2019-01-03T22:14:19.270Z,53.6
2019-01-03T22:19:15.298Z,53.9
2019-01-03T22:24:11.756Z,53.9
2019-01-03T22:29:08.415Z,54
2019-01-03T22:34:04.660Z,54.5
2019-01-03T22:39:01.303Z,54.4
2019-01-03T22:43:57.597Z,54.4
2019-01-03T22:48:54.050Z,54.7
2019-01-03T22:53:50.551Z,54.8
2019-01-03T22:58:47.417Z,54.8
2019-01-03T23:03:43.525Z,54.7
2019-01-03T23:08:39.976Z,54.5
2019-01-03T23:13:35.809Z,55.1
2019-01-03T23:18:32.250Z,55.4
2019-01-03T23:23:28.809Z,55.1
2019-01-03T23:28:25.343Z,54.6
2019-01-03T23:33:21.324Z,54.1
2019-01-03T23:38:17.494Z,54.2
2019-01-03T23:43:13.785Z,54.7
2019-01-03T23:48:09.911Z,54.6
2019-01-03T23:53:06.150Z,54.5
2019-01-03T23:58:02.819Z,54.7
